sensor_id;sensor_type;location;lat;lon;timestamp;P1;durP1;ratioP1;P2;durP2;ratioP2
11305;SDS011;5708;50.660;6.778;2023-04-10T00:00:36;13.13;;;7.65;;
11305;SDS011;5708;50.660;6.778;2023-04-10T00:03:03;14.40;;;7.93;;
11305;SDS011;5708;50.660;6.778;2023-04-10T00:05:28;13.00;;;7.95;;
11305;SDS011;5708;50.660;6.778;2023-04-10T00:07:53;14.35;;;7.30;;
11305;SDS011;5708;50.660;6.778;2023-04-10T00:10:19;16.40;;;8.20;;
11305;SDS011;5708;50.660;6.778;2023-04-10T00:12:47;12.48;;;7.55;;
11305;SDS011;5708;50.660;6.778;2023-04-10T00:15:12;13.77;;;9.00;;
11305;SDS011;5708;50.660;6.778;2023-04-10T00:17:38;13.53;;;8.37;;
11305;SDS011;5708;50.660;6.778;2023-04-10T00:20:03;11.57;;;8.17;;
11305;SDS011;5708;50.660;6.778;2023-04-10T00:22:29;13.10;;;8.35;;
11305;SDS011;5708;50.660;6.778;2023-04-10T00:24:54;13.13;;;7.78;;
11305;SDS011;5708;50.660;6.778;2023-04-10T00:27:19;12.27;;;7.87;;
11305;SDS011;5708;50.660;6.778;2023-04-10T00:29:44;14.45;;;8.40;;
11305;SDS011;5708;50.660;6.778;2023-04-10T00:32:10;13.18;;;7.80;;
11305;SDS011;5708;50.660;6.778;2023-04-10T00:34:35;13.95;;;8.02;;
11305;SDS011;5708;50.660;6.778;2023-04-10T00:37:00;14.07;;;7.13;;
11305;SDS011;5708;50.660;6.778;2023-04-10T00:39:25;12.47;;;7.40;;
11305;SDS011;5708;50.660;6.778;2023-04-10T00:41:51;12.27;;;7.53;;
11305;SDS011;5708;50.660;6.778;2023-04-10T00:44:16;14.50;;;7.63;;
11305;SDS011;5708;50.660;6.778;2023-04-10T00:46:41;11.60;;;7.05;;
11305;SDS011;5708;50.660;6.778;2023-04-10T00:49:07;13.75;;;7.13;;
11305;SDS011;5708;50.660;6.778;2023-04-10T00:51:33;11.82;;;6.97;;
11305;SDS011;5708;50.660;6.778;2023-04-10T00:53:59;11.73;;;7.28;;
11305;SDS011;5708;50.660;6.778;2023-04-10T00:56:24;12.73;;;7.30;;
11305;SDS011;5708;50.660;6.778;2023-04-10T00:58:49;11.25;;;6.88;;
11305;SDS011;5708;50.660;6.778;2023-04-10T01:01:14;11.00;;;6.40;;
11305;SDS011;5708;50.660;6.778;2023-04-10T01:03:40;9.70;;;6.32;;
11305;SDS011;5708;50.660;6.778;2023-04-10T01:11:17;11.00;;;6.82;;
11305;SDS011;5708;50.660;6.778;2023-04-10T01:13:49;9.05;;;5.65;;
11305;SDS011;5708;50.660;6.778;2023-04-10T01:16:30;11.52;;;6.72;;
11305;SDS011;5708;50.660;6.778;2023-04-10T01:19:01;9.90;;;6.22;;
11305;SDS011;5708;50.660;6.778;2023-04-10T01:21:28;9.85;;;6.03;;
11305;SDS011;5708;50.660;6.778;2023-04-10T01:29:13;10.23;;;5.70;;
11305;SDS011;5708;50.660;6.778;2023-04-10T01:34:19;9.80;;;6.22;;
11305;SDS011;5708;50.660;6.778;2023-04-10T01:36:50;10.00;;;6.30;;
11305;SDS011;5708;50.660;6.778;2023-04-10T01:39:18;12.63;;;5.97;;
11305;SDS011;5708;50.660;6.778;2023-04-10T01:41:44;11.75;;;6.53;;
11305;SDS011;5708;50.660;6.778;2023-04-10T01:44:10;10.73;;;6.40;;
11305;SDS011;5708;50.660;6.778;2023-04-10T01:46:38;10.85;;;6.43;;
11305;SDS011;5708;50.660;6.778;2023-04-10T01:49:03;11.00;;;6.63;;
11305;SDS011;5708;50.660;6.778;2023-04-10T01:51:30;11.27;;;6.65;;
11305;SDS011;5708;50.660;6.778;2023-04-10T01:53:55;10.68;;;6.25;;
11305;SDS011;5708;50.660;6.778;2023-04-10T01:56:20;11.18;;;6.80;;
11305;SDS011;5708;50.660;6.778;2023-04-10T01:58:46;10.60;;;6.30;;
11305;SDS011;5708;50.660;6.778;2023-04-10T02:01:17;10.20;;;6.38;;
11305;SDS011;5708;50.660;6.778;2023-04-10T02:03:42;11.13;;;6.95;;
11305;SDS011;5708;50.660;6.778;2023-04-10T02:06:10;10.50;;;6.67;;
11305;SDS011;5708;50.660;6.778;2023-04-10T02:09:01;12.27;;;7.35;;
11305;SDS011;5708;50.660;6.778;2023-04-10T02:13:48;11.53;;;6.87;;
11305;SDS011;5708;50.660;6.778;2023-04-10T02:16:14;10.93;;;6.63;;
11305;SDS011;5708;50.660;6.778;2023-04-10T02:18:41;12.45;;;7.30;;
11305;SDS011;5708;50.660;6.778;2023-04-10T02:21:07;12.00;;;7.45;;
11305;SDS011;5708;50.660;6.778;2023-04-10T02:23:33;10.45;;;6.72;;
11305;SDS011;5708;50.660;6.778;2023-04-10T02:26:04;9.90;;;6.60;;
11305;SDS011;5708;50.660;6.778;2023-04-10T02:28:29;10.60;;;6.70;;
11305;SDS011;5708;50.660;6.778;2023-04-10T02:30:55;12.70;;;7.00;;
11305;SDS011;5708;50.660;6.778;2023-04-10T02:33:20;9.97;;;6.33;;
11305;SDS011;5708;50.660;6.778;2023-04-10T02:35:45;10.87;;;7.20;;
11305;SDS011;5708;50.660;6.778;2023-04-10T02:38:10;9.60;;;6.43;;
11305;SDS011;5708;50.660;6.778;2023-04-10T02:40:36;9.60;;;6.20;;
11305;SDS011;5708;50.660;6.778;2023-04-10T02:43:01;11.02;;;6.63;;
11305;SDS011;5708;50.660;6.778;2023-04-10T02:45:26;10.27;;;6.20;;
11305;SDS011;5708;50.660;6.778;2023-04-10T02:47:51;12.23;;;7.17;;
11305;SDS011;5708;50.660;6.778;2023-04-10T02:50:16;11.93;;;6.80;;
11305;SDS011;5708;50.660;6.778;2023-04-10T02:52:42;11.73;;;7.20;;
11305;SDS011;5708;50.660;6.778;2023-04-10T02:55:07;11.67;;;6.97;;
11305;SDS011;5708;50.660;6.778;2023-04-10T02:57:33;10.43;;;6.50;;
11305;SDS011;5708;50.660;6.778;2023-04-10T02:59:58;11.10;;;7.10;;
11305;SDS011;5708;50.660;6.778;2023-04-10T03:02:23;12.20;;;7.17;;
11305;SDS011;5708;50.660;6.778;2023-04-10T03:04:50;13.13;;;7.38;;
11305;SDS011;5708;50.660;6.778;2023-04-10T03:07:17;11.70;;;7.28;;
11305;SDS011;5708;50.660;6.778;2023-04-10T03:09:42;11.37;;;6.87;;
11305;SDS011;5708;50.660;6.778;2023-04-10T03:12:07;11.20;;;7.00;;
11305;SDS011;5708;50.660;6.778;2023-04-10T03:14:32;11.77;;;7.23;;
11305;SDS011;5708;50.660;6.778;2023-04-10T03:16:58;11.83;;;6.63;;
11305;SDS011;5708;50.660;6.778;2023-04-10T03:19:23;11.13;;;6.60;;
11305;SDS011;5708;50.660;6.778;2023-04-10T03:21:50;13.25;;;7.10;;
11305;SDS011;5708;50.660;6.778;2023-04-10T03:24:16;12.38;;;7.30;;
11305;SDS011;5708;50.660;6.778;2023-04-10T03:26:41;11.20;;;6.75;;
11305;SDS011;5708;50.660;6.778;2023-04-10T03:29:06;12.85;;;7.30;;
11305;SDS011;5708;50.660;6.778;2023-04-10T03:31:32;12.70;;;7.40;;
11305;SDS011;5708;50.660;6.778;2023-04-10T03:33:57;12.33;;;7.20;;
11305;SDS011;5708;50.660;6.778;2023-04-10T03:36:22;12.43;;;7.43;;
11305;SDS011;5708;50.660;6.778;2023-04-10T03:38:47;12.00;;;7.33;;
11305;SDS011;5708;50.660;6.778;2023-04-10T03:41:12;10.90;;;6.75;;
11305;SDS011;5708;50.660;6.778;2023-04-10T03:43:38;11.70;;;7.30;;
11305;SDS011;5708;50.660;6.778;2023-04-10T03:46:03;12.73;;;7.15;;
11305;SDS011;5708;50.660;6.778;2023-04-10T03:48:28;11.45;;;6.82;;
11305;SDS011;5708;50.660;6.778;2023-04-10T03:50:54;11.82;;;6.90;;
11305;SDS011;5708;50.660;6.778;2023-04-10T03:53:19;15.55;;;7.13;;
11305;SDS011;5708;50.660;6.778;2023-04-10T03:55:45;13.10;;;7.13;;
11305;SDS011;5708;50.660;6.778;2023-04-10T03:58:10;13.23;;;7.33;;
11305;SDS011;5708;50.660;6.778;2023-04-10T04:00:36;11.98;;;7.30;;
11305;SDS011;5708;50.660;6.778;2023-04-10T04:03:01;12.88;;;7.43;;
11305;SDS011;5708;50.660;6.778;2023-04-10T04:05:28;14.93;;;8.32;;
11305;SDS011;5708;50.660;6.778;2023-04-10T04:07:54;14.80;;;8.98;;
11305;SDS011;5708;50.660;6.778;2023-04-10T04:10:20;14.97;;;8.50;;
11305;SDS011;5708;50.660;6.778;2023-04-10T04:12:45;12.97;;;7.67;;
11305;SDS011;5708;50.660;6.778;2023-04-10T04:15:10;14.43;;;8.45;;
11305;SDS011;5708;50.660;6.778;2023-04-10T04:17:35;13.30;;;7.93;;
11305;SDS011;5708;50.660;6.778;2023-04-10T04:20:01;12.27;;;7.72;;
11305;SDS011;5708;50.660;6.778;2023-04-10T04:22:26;12.67;;;8.00;;
11305;SDS011;5708;50.660;6.778;2023-04-10T04:24:51;13.45;;;7.93;;
11305;SDS011;5708;50.660;6.778;2023-04-10T04:27:16;13.27;;;7.75;;
11305;SDS011;5708;50.660;6.778;2023-04-10T04:29:42;12.27;;;7.60;;
11305;SDS011;5708;50.660;6.778;2023-04-10T04:32:07;11.37;;;7.57;;
11305;SDS011;5708;50.660;6.778;2023-04-10T04:34:33;13.27;;;7.85;;
11305;SDS011;5708;50.660;6.778;2023-04-10T04:36:58;11.57;;;7.03;;
11305;SDS011;5708;50.660;6.778;2023-04-10T04:39:23;11.67;;;7.37;;
11305;SDS011;5708;50.660;6.778;2023-04-10T04:41:48;12.40;;;7.13;;
11305;SDS011;5708;50.660;6.778;2023-04-10T04:44:14;11.63;;;6.93;;
11305;SDS011;5708;50.660;6.778;2023-04-10T04:46:39;12.77;;;7.57;;
11305;SDS011;5708;50.660;6.778;2023-04-10T04:49:05;13.38;;;7.35;;
11305;SDS011;5708;50.660;6.778;2023-04-10T04:51:30;12.77;;;7.13;;
11305;SDS011;5708;50.660;6.778;2023-04-10T04:53:55;12.97;;;7.77;;
11305;SDS011;5708;50.660;6.778;2023-04-10T04:56:20;13.52;;;7.93;;
11305;SDS011;5708;50.660;6.778;2023-04-10T04:58:46;11.63;;;7.03;;
11305;SDS011;5708;50.660;6.778;2023-04-10T05:01:11;12.95;;;8.18;;
11305;SDS011;5708;50.660;6.778;2023-04-10T05:03:36;12.15;;;7.13;;
11305;SDS011;5708;50.660;6.778;2023-04-10T05:06:02;11.43;;;7.18;;
11305;SDS011;5708;50.660;6.778;2023-04-10T05:08:27;13.40;;;7.90;;
11305;SDS011;5708;50.660;6.778;2023-04-10T05:10:52;15.20;;;7.77;;
11305;SDS011;5708;50.660;6.778;2023-04-10T05:13:17;14.00;;;7.77;;
11305;SDS011;5708;50.660;6.778;2023-04-10T05:15:43;13.60;;;7.90;;
11305;SDS011;5708;50.660;6.778;2023-04-10T05:18:08;13.60;;;8.63;;
11305;SDS011;5708;50.660;6.778;2023-04-10T05:20:34;12.73;;;7.70;;
11305;SDS011;5708;50.660;6.778;2023-04-10T05:22:59;13.88;;;7.93;;
11305;SDS011;5708;50.660;6.778;2023-04-10T05:25:25;13.97;;;7.33;;
11305;SDS011;5708;50.660;6.778;2023-04-10T05:27:50;14.05;;;8.05;;
11305;SDS011;5708;50.660;6.778;2023-04-10T05:30:15;14.00;;;8.20;;
11305;SDS011;5708;50.660;6.778;2023-04-10T05:32:40;13.48;;;8.00;;
11305;SDS011;5708;50.660;6.778;2023-04-10T05:35:06;13.73;;;8.13;;
11305;SDS011;5708;50.660;6.778;2023-04-10T05:37:31;12.77;;;7.60;;
11305;SDS011;5708;50.660;6.778;2023-04-10T05:39:57;15.15;;;8.57;;
11305;SDS011;5708;50.660;6.778;2023-04-10T05:42:22;14.05;;;8.25;;
11305;SDS011;5708;50.660;6.778;2023-04-10T05:44:48;14.27;;;8.57;;
11305;SDS011;5708;50.660;6.778;2023-04-10T05:47:14;14.02;;;8.48;;
11305;SDS011;5708;50.660;6.778;2023-04-10T05:49:39;14.57;;;8.25;;
11305;SDS011;5708;50.660;6.778;2023-04-10T05:52:04;14.50;;;9.00;;
11305;SDS011;5708;50.660;6.778;2023-04-10T05:54:30;13.27;;;7.73;;
11305;SDS011;5708;50.660;6.778;2023-04-10T05:56:55;14.05;;;8.18;;
11305;SDS011;5708;50.660;6.778;2023-04-10T05:59:20;13.68;;;8.40;;
11305;SDS011;5708;50.660;6.778;2023-04-10T06:01:45;14.68;;;8.13;;
11305;SDS011;5708;50.660;6.778;2023-04-10T06:04:11;13.65;;;8.43;;
11305;SDS011;5708;50.660;6.778;2023-04-10T06:06:37;13.60;;;8.10;;
11305;SDS011;5708;50.660;6.778;2023-04-10T06:09:02;13.80;;;8.38;;
11305;SDS011;5708;50.660;6.778;2023-04-10T06:11:28;14.90;;;8.00;;
11305;SDS011;5708;50.660;6.778;2023-04-10T06:13:53;12.18;;;8.35;;
11305;SDS011;5708;50.660;6.778;2023-04-10T06:16:18;14.33;;;7.97;;
11305;SDS011;5708;50.660;6.778;2023-04-10T06:18:43;12.17;;;8.10;;
11305;SDS011;5708;50.660;6.778;2023-04-10T06:21:08;12.50;;;8.15;;
11305;SDS011;5708;50.660;6.778;2023-04-10T06:23:34;12.50;;;8.18;;
11305;SDS011;5708;50.660;6.778;2023-04-10T06:25:59;15.15;;;8.43;;
11305;SDS011;5708;50.660;6.778;2023-04-10T06:28:25;12.73;;;8.27;;
11305;SDS011;5708;50.660;6.778;2023-04-10T06:30:50;12.80;;;8.13;;
11305;SDS011;5708;50.660;6.778;2023-04-10T06:33:16;14.40;;;7.78;;
11305;SDS011;5708;50.660;6.778;2023-04-10T06:35:41;12.90;;;7.93;;
11305;SDS011;5708;50.660;6.778;2023-04-10T06:38:06;11.63;;;7.30;;
11305;SDS011;5708;50.660;6.778;2023-04-10T06:40:32;12.68;;;8.00;;
11305;SDS011;5708;50.660;6.778;2023-04-10T06:42:58;13.00;;;7.32;;
11305;SDS011;5708;50.660;6.778;2023-04-10T06:45:23;13.43;;;8.75;;
11305;SDS011;5708;50.660;6.778;2023-04-10T06:47:48;13.97;;;7.83;;
11305;SDS011;5708;50.660;6.778;2023-04-10T06:50:14;12.85;;;8.38;;
11305;SDS011;5708;50.660;6.778;2023-04-10T06:52:39;13.57;;;8.48;;
11305;SDS011;5708;50.660;6.778;2023-04-10T06:55:05;12.50;;;8.57;;
11305;SDS011;5708;50.660;6.778;2023-04-10T06:57:30;12.48;;;7.78;;
11305;SDS011;5708;50.660;6.778;2023-04-10T06:59:55;11.88;;;7.60;;
11305;SDS011;5708;50.660;6.778;2023-04-10T07:02:20;13.17;;;8.40;;
11305;SDS011;5708;50.660;6.778;2023-04-10T07:04:46;12.52;;;8.38;;
11305;SDS011;5708;50.660;6.778;2023-04-10T07:07:11;11.13;;;8.00;;
11305;SDS011;5708;50.660;6.778;2023-04-10T07:09:37;12.27;;;8.18;;
11305;SDS011;5708;50.660;6.778;2023-04-10T07:12:03;12.25;;;7.63;;
11305;SDS011;5708;50.660;6.778;2023-04-10T07:14:28;14.00;;;8.00;;
11305;SDS011;5708;50.660;6.778;2023-04-10T07:16:53;10.77;;;7.47;;
11305;SDS011;5708;50.660;6.778;2023-04-10T07:19:18;11.17;;;7.27;;
11305;SDS011;5708;50.660;6.778;2023-04-10T07:21:45;11.32;;;7.32;;
11305;SDS011;5708;50.660;6.778;2023-04-10T07:24:13;10.02;;;6.80;;
11305;SDS011;5708;50.660;6.778;2023-04-10T07:26:40;9.70;;;6.82;;
11305;SDS011;5708;50.660;6.778;2023-04-10T07:29:05;9.97;;;6.60;;
11305;SDS011;5708;50.660;6.778;2023-04-10T07:31:30;10.52;;;7.38;;
11305;SDS011;5708;50.660;6.778;2023-04-10T07:33:56;9.13;;;6.23;;
11305;SDS011;5708;50.660;6.778;2023-04-10T07:36:21;8.10;;;5.10;;
11305;SDS011;5708;50.660;6.778;2023-04-10T07:38:46;8.43;;;5.07;;
11305;SDS011;5708;50.660;6.778;2023-04-10T07:41:11;8.03;;;4.90;;
11305;SDS011;5708;50.660;6.778;2023-04-10T07:43:37;9.15;;;5.40;;
11305;SDS011;5708;50.660;6.778;2023-04-10T07:46:02;7.97;;;4.83;;
11305;SDS011;5708;50.660;6.778;2023-04-10T07:48:27;7.45;;;4.53;;
11305;SDS011;5708;50.660;6.778;2023-04-10T07:50:52;8.20;;;5.00;;
11305;SDS011;5708;50.660;6.778;2023-04-10T07:53:17;9.07;;;4.87;;
11305;SDS011;5708;50.660;6.778;2023-04-10T07:55:43;6.93;;;4.47;;
11305;SDS011;5708;50.660;6.778;2023-04-10T07:58:09;7.60;;;4.72;;
11305;SDS011;5708;50.660;6.778;2023-04-10T08:00:35;6.80;;;4.43;;
11305;SDS011;5708;50.660;6.778;2023-04-10T08:03:00;7.00;;;4.63;;
11305;SDS011;5708;50.660;6.778;2023-04-10T08:05:26;6.65;;;4.30;;
11305;SDS011;5708;50.660;6.778;2023-04-10T08:07:51;6.82;;;4.57;;
11305;SDS011;5708;50.660;6.778;2023-04-10T08:10:16;7.28;;;4.38;;
11305;SDS011;5708;50.660;6.778;2023-04-10T08:12:42;6.90;;;4.45;;
11305;SDS011;5708;50.660;6.778;2023-04-10T08:15:07;7.33;;;4.60;;
11305;SDS011;5708;50.660;6.778;2023-04-10T08:17:32;6.30;;;3.85;;
11305;SDS011;5708;50.660;6.778;2023-04-10T08:19:57;7.33;;;4.53;;
11305;SDS011;5708;50.660;6.778;2023-04-10T08:22:23;5.97;;;4.03;;
11305;SDS011;5708;50.660;6.778;2023-04-10T08:24:48;6.63;;;4.23;;
11305;SDS011;5708;50.660;6.778;2023-04-10T08:27:13;6.43;;;4.17;;
11305;SDS011;5708;50.660;6.778;2023-04-10T08:29:40;6.65;;;4.13;;
11305;SDS011;5708;50.660;6.778;2023-04-10T08:32:05;5.93;;;4.10;;
11305;SDS011;5708;50.660;6.778;2023-04-10T08:34:30;6.30;;;4.03;;
11305;SDS011;5708;50.660;6.778;2023-04-10T08:36:55;7.60;;;4.60;;
11305;SDS011;5708;50.660;6.778;2023-04-10T08:39:21;6.45;;;3.72;;
11305;SDS011;5708;50.660;6.778;2023-04-10T08:41:46;6.53;;;4.23;;
11305;SDS011;5708;50.660;6.778;2023-04-10T08:44:11;5.23;;;3.30;;
11305;SDS011;5708;50.660;6.778;2023-04-10T08:46:36;6.50;;;4.05;;
11305;SDS011;5708;50.660;6.778;2023-04-10T08:49:05;5.63;;;3.72;;
11305;SDS011;5708;50.660;6.778;2023-04-10T08:51:49;6.50;;;4.00;;
11305;SDS011;5708;50.660;6.778;2023-04-10T08:54:20;4.95;;;3.28;;
11305;SDS011;5708;50.660;6.778;2023-04-10T08:56:50;5.07;;;3.42;;
11305;SDS011;5708;50.660;6.778;2023-04-10T08:59:16;5.05;;;3.47;;
11305;SDS011;5708;50.660;6.778;2023-04-10T09:01:42;5.60;;;3.60;;
11305;SDS011;5708;50.660;6.778;2023-04-10T09:04:08;6.87;;;3.70;;
11305;SDS011;5708;50.660;6.778;2023-04-10T09:06:35;5.68;;;3.60;;
11305;SDS011;5708;50.660;6.778;2023-04-10T09:09:00;5.20;;;3.10;;
11305;SDS011;5708;50.660;6.778;2023-04-10T09:11:54;5.30;;;3.10;;
11305;SDS011;5708;50.660;6.778;2023-04-10T09:14:23;5.38;;;3.20;;
11305;SDS011;5708;50.660;6.778;2023-04-10T09:16:49;5.45;;;3.28;;
11305;SDS011;5708;50.660;6.778;2023-04-10T09:19:30;5.47;;;3.15;;
11305;SDS011;5708;50.660;6.778;2023-04-10T09:21:56;5.05;;;3.45;;
11305;SDS011;5708;50.660;6.778;2023-04-10T09:24:22;5.32;;;3.10;;
11305;SDS011;5708;50.660;6.778;2023-04-10T09:26:47;5.10;;;3.20;;
11305;SDS011;5708;50.660;6.778;2023-04-10T09:29:12;4.65;;;3.03;;
11305;SDS011;5708;50.660;6.778;2023-04-10T09:31:38;4.73;;;3.20;;
11305;SDS011;5708;50.660;6.778;2023-04-10T09:34:14;4.85;;;3.20;;
11305;SDS011;5708;50.660;6.778;2023-04-10T09:36:41;5.20;;;2.90;;
11305;SDS011;5708;50.660;6.778;2023-04-10T09:39:07;4.88;;;3.10;;
11305;SDS011;5708;50.660;6.778;2023-04-10T09:41:32;5.18;;;3.05;;
11305;SDS011;5708;50.660;6.778;2023-04-10T09:44:08;5.03;;;3.10;;
11305;SDS011;5708;50.660;6.778;2023-04-10T09:46:33;4.35;;;2.88;;
11305;SDS011;5708;50.660;6.778;2023-04-10T09:48:59;4.55;;;2.55;;
11305;SDS011;5708;50.660;6.778;2023-04-10T09:51:32;4.05;;;2.80;;
11305;SDS011;5708;50.660;6.778;2023-04-10T09:53:58;4.90;;;3.05;;
11305;SDS011;5708;50.660;6.778;2023-04-10T09:56:27;4.15;;;2.65;;
11305;SDS011;5708;50.660;6.778;2023-04-10T09:58:52;4.25;;;2.63;;
11305;SDS011;5708;50.660;6.778;2023-04-10T10:01:20;4.00;;;2.78;;
11305;SDS011;5708;50.660;6.778;2023-04-10T10:03:45;4.18;;;2.63;;
11305;SDS011;5708;50.660;6.778;2023-04-10T10:06:11;4.50;;;2.97;;
11305;SDS011;5708;50.660;6.778;2023-04-10T10:08:36;4.38;;;2.70;;
11305;SDS011;5708;50.660;6.778;2023-04-10T10:11:01;4.33;;;2.73;;
11305;SDS011;5708;50.660;6.778;2023-04-10T10:13:30;4.10;;;2.55;;
11305;SDS011;5708;50.660;6.778;2023-04-10T10:16:11;6.45;;;3.05;;
11305;SDS011;5708;50.660;6.778;2023-04-10T10:21:20;4.97;;;2.47;;
11305;SDS011;5708;50.660;6.778;2023-04-10T10:23:47;5.50;;;3.10;;
11305;SDS011;5708;50.660;6.778;2023-04-10T10:26:17;4.78;;;2.75;;
11305;SDS011;5708;50.660;6.778;2023-04-10T10:28:43;3.95;;;2.75;;
11305;SDS011;5708;50.660;6.778;2023-04-10T10:31:10;4.88;;;2.47;;
11305;SDS011;5708;50.660;6.778;2023-04-10T10:33:36;3.70;;;2.40;;
11305;SDS011;5708;50.660;6.778;2023-04-10T10:36:02;7.43;;;3.30;;
11305;SDS011;5708;50.660;6.778;2023-04-10T10:38:31;5.25;;;2.85;;
11305;SDS011;5708;50.660;6.778;2023-04-10T10:41:01;4.57;;;2.75;;
11305;SDS011;5708;50.660;6.778;2023-04-10T10:44:13;3.60;;;2.50;;
11305;SDS011;5708;50.660;6.778;2023-04-10T10:46:33;4.50;;;2.33;;
11305;SDS011;5708;50.660;6.778;2023-04-10T10:48:59;3.95;;;2.38;;
11305;SDS011;5708;50.660;6.778;2023-04-10T10:51:45;6.07;;;2.80;;
11305;SDS011;5708;50.660;6.778;2023-04-10T10:56:52;4.05;;;2.30;;
11305;SDS011;5708;50.660;6.778;2023-04-10T10:59:17;3.40;;;2.20;;
11305;SDS011;5708;50.660;6.778;2023-04-10T11:02:11;3.20;;;1.83;;
11305;SDS011;5708;50.660;6.778;2023-04-10T11:04:43;4.32;;;2.10;;
11305;SDS011;5708;50.660;6.778;2023-04-10T11:07:09;3.53;;;2.15;;
11305;SDS011;5708;50.660;6.778;2023-04-10T11:09:45;3.13;;;2.20;;
11305;SDS011;5708;50.660;6.778;2023-04-10T11:12:13;3.35;;;1.98;;
11305;SDS011;5708;50.660;6.778;2023-04-10T11:14:39;2.90;;;2.00;;
11305;SDS011;5708;50.660;6.778;2023-04-10T11:17:05;3.08;;;1.90;;
11305;SDS011;5708;50.660;6.778;2023-04-10T11:19:47;3.13;;;2.20;;
11305;SDS011;5708;50.660;6.778;2023-04-10T11:22:16;3.58;;;2.08;;
11305;SDS011;5708;50.660;6.778;2023-04-10T11:24:51;3.70;;;1.93;;
11305;SDS011;5708;50.660;6.778;2023-04-10T11:30:01;2.65;;;1.75;;
11305;SDS011;5708;50.660;6.778;2023-04-10T11:32:27;3.25;;;2.08;;
11305;SDS011;5708;50.660;6.778;2023-04-10T11:35:04;2.45;;;1.90;;
11305;SDS011;5708;50.660;6.778;2023-04-10T11:37:30;7.97;;;1.90;;
11305;SDS011;5708;50.660;6.778;2023-04-10T11:40:02;2.60;;;1.77;;
11305;SDS011;5708;50.660;6.778;2023-04-10T11:42:27;3.15;;;2.00;;
11305;SDS011;5708;50.660;6.778;2023-04-10T11:44:52;4.40;;;2.30;;
11305;SDS011;5708;50.660;6.778;2023-04-10T11:47:17;2.73;;;1.80;;
11305;SDS011;5708;50.660;6.778;2023-04-10T11:49:43;3.47;;;2.10;;
11305;SDS011;5708;50.660;6.778;2023-04-10T11:52:23;3.85;;;2.28;;
11305;SDS011;5708;50.660;6.778;2023-04-10T11:54:49;2.80;;;2.00;;
11305;SDS011;5708;50.660;6.778;2023-04-10T11:57:14;2.83;;;2.00;;
11305;SDS011;5708;50.660;6.778;2023-04-10T11:59:39;2.87;;;2.03;;
11305;SDS011;5708;50.660;6.778;2023-04-10T12:02:09;4.33;;;2.00;;
11305;SDS011;5708;50.660;6.778;2023-04-10T12:04:35;2.90;;;2.05;;
11305;SDS011;5708;50.660;6.778;2023-04-10T12:07:00;3.28;;;2.22;;
11305;SDS011;5708;50.660;6.778;2023-04-10T12:09:26;4.25;;;2.38;;
11305;SDS011;5708;50.660;6.778;2023-04-10T12:14:16;3.65;;;2.33;;
11305;SDS011;5708;50.660;6.778;2023-04-10T12:16:42;3.95;;;2.38;;
11305;SDS011;5708;50.660;6.778;2023-04-10T12:19:09;3.90;;;2.30;;
11305;SDS011;5708;50.660;6.778;2023-04-10T12:21:35;3.35;;;1.90;;
11305;SDS011;5708;50.660;6.778;2023-04-10T12:24:01;4.40;;;2.40;;
11305;SDS011;5708;50.660;6.778;2023-04-10T12:26:26;3.53;;;2.10;;
11305;SDS011;5708;50.660;6.778;2023-04-10T12:28:54;3.43;;;1.90;;
11305;SDS011;5708;50.660;6.778;2023-04-10T12:33:52;3.30;;;2.20;;
11305;SDS011;5708;50.660;6.778;2023-04-10T12:36:22;3.38;;;2.22;;
11305;SDS011;5708;50.660;6.778;2023-04-10T12:38:47;4.90;;;2.33;;
11305;SDS011;5708;50.660;6.778;2023-04-10T12:41:13;3.50;;;2.10;;
11305;SDS011;5708;50.660;6.778;2023-04-10T12:43:44;3.67;;;2.22;;
11305;SDS011;5708;50.660;6.778;2023-04-10T12:46:19;3.80;;;2.28;;
11305;SDS011;5708;50.660;6.778;2023-04-10T12:48:46;2.97;;;1.90;;
11305;SDS011;5708;50.660;6.778;2023-04-10T12:51:11;2.70;;;1.83;;
11305;SDS011;5708;50.660;6.778;2023-04-10T12:53:42;6.23;;;2.17;;
11305;SDS011;5708;50.660;6.778;2023-04-10T12:56:08;3.88;;;2.38;;
11305;SDS011;5708;50.660;6.778;2023-04-10T12:58:36;3.15;;;1.88;;
11305;SDS011;5708;50.660;6.778;2023-04-10T13:01:05;5.30;;;2.40;;
11305;SDS011;5708;50.660;6.778;2023-04-10T13:03:37;3.58;;;2.20;;
11305;SDS011;5708;50.660;6.778;2023-04-10T13:06:05;2.75;;;2.05;;
11305;SDS011;5708;50.660;6.778;2023-04-10T13:08:34;5.00;;;1.92;;
11305;SDS011;5708;50.660;6.778;2023-04-10T13:10:59;3.50;;;2.17;;
11305;SDS011;5708;50.660;6.778;2023-04-10T13:13:28;3.22;;;2.05;;
11305;SDS011;5708;50.660;6.778;2023-04-10T13:15:54;2.80;;;2.00;;
11305;SDS011;5708;50.660;6.778;2023-04-10T13:18:19;2.90;;;2.00;;
11305;SDS011;5708;50.660;6.778;2023-04-10T13:20:44;5.10;;;2.23;;
11305;SDS011;5708;50.660;6.778;2023-04-10T13:23:10;3.00;;;2.00;;
11305;SDS011;5708;50.660;6.778;2023-04-10T13:25:36;3.03;;;1.90;;
11305;SDS011;5708;50.660;6.778;2023-04-10T13:28:03;3.10;;;1.88;;
11305;SDS011;5708;50.660;6.778;2023-04-10T13:30:34;2.80;;;1.90;;
11305;SDS011;5708;50.660;6.778;2023-04-10T13:32:59;3.10;;;1.80;;
11305;SDS011;5708;50.660;6.778;2023-04-10T13:35:25;2.70;;;1.77;;
11305;SDS011;5708;50.660;6.778;2023-04-10T13:37:50;2.92;;;1.70;;
11305;SDS011;5708;50.660;6.778;2023-04-10T13:40:18;2.75;;;1.90;;
11305;SDS011;5708;50.660;6.778;2023-04-10T13:42:43;3.22;;;1.95;;
11305;SDS011;5708;50.660;6.778;2023-04-10T13:45:08;3.53;;;2.07;;
11305;SDS011;5708;50.660;6.778;2023-04-10T13:47:33;3.47;;;1.92;;
11305;SDS011;5708;50.660;6.778;2023-04-10T13:49:59;3.85;;;1.92;;
11305;SDS011;5708;50.660;6.778;2023-04-10T13:52:24;2.93;;;1.80;;
11305;SDS011;5708;50.660;6.778;2023-04-10T13:54:49;3.40;;;2.13;;
11305;SDS011;5708;50.660;6.778;2023-04-10T13:57:14;3.83;;;1.90;;
11305;SDS011;5708;50.660;6.778;2023-04-10T13:59:40;2.87;;;1.83;;
11305;SDS011;5708;50.660;6.778;2023-04-10T14:02:05;3.53;;;2.23;;
11305;SDS011;5708;50.660;6.778;2023-04-10T14:04:30;3.63;;;2.20;;
11305;SDS011;5708;50.660;6.778;2023-04-10T14:06:56;2.63;;;1.80;;
11305;SDS011;5708;50.660;6.778;2023-04-10T14:09:24;4.88;;;1.95;;
11305;SDS011;5708;50.660;6.778;2023-04-10T14:11:49;2.77;;;1.80;;
11305;SDS011;5708;50.660;6.778;2023-04-10T14:14:14;4.90;;;2.20;;
11305;SDS011;5708;50.660;6.778;2023-04-10T14:16:40;3.95;;;2.20;;
11305;SDS011;5708;50.660;6.778;2023-04-10T14:19:05;4.18;;;2.22;;
11305;SDS011;5708;50.660;6.778;2023-04-10T14:21:30;4.20;;;2.30;;
11305;SDS011;5708;50.660;6.778;2023-04-10T14:23:55;4.83;;;2.40;;
11305;SDS011;5708;50.660;6.778;2023-04-10T14:26:20;3.60;;;2.20;;
11305;SDS011;5708;50.660;6.778;2023-04-10T14:28:46;4.50;;;2.60;;
11305;SDS011;5708;50.660;6.778;2023-04-10T14:31:11;4.73;;;2.40;;
11305;SDS011;5708;50.660;6.778;2023-04-10T14:33:36;3.77;;;2.03;;
11305;SDS011;5708;50.660;6.778;2023-04-10T14:36:01;3.00;;;1.90;;
11305;SDS011;5708;50.660;6.778;2023-04-10T14:38:27;5.00;;;2.10;;
11305;SDS011;5708;50.660;6.778;2023-04-10T14:40:52;3.73;;;2.30;;
11305;SDS011;5708;50.660;6.778;2023-04-10T14:43:17;3.50;;;2.15;;
11305;SDS011;5708;50.660;6.778;2023-04-10T14:45:43;4.07;;;2.40;;
11305;SDS011;5708;50.660;6.778;2023-04-10T14:48:08;3.67;;;2.22;;
11305;SDS011;5708;50.660;6.778;2023-04-10T14:50:34;3.30;;;2.10;;
11305;SDS011;5708;50.660;6.778;2023-04-10T14:53:00;4.47;;;2.38;;
11305;SDS011;5708;50.660;6.778;2023-04-10T14:55:27;3.72;;;2.10;;
11305;SDS011;5708;50.660;6.778;2023-04-10T14:57:52;4.25;;;2.15;;
11305;SDS011;5708;50.660;6.778;2023-04-10T15:00:17;6.70;;;2.10;;
11305;SDS011;5708;50.660;6.778;2023-04-10T15:02:43;4.32;;;2.25;;
11305;SDS011;5708;50.660;6.778;2023-04-10T15:05:09;4.32;;;2.38;;
11305;SDS011;5708;50.660;6.778;2023-04-10T15:07:34;4.93;;;2.45;;
11305;SDS011;5708;50.660;6.778;2023-04-10T15:09:59;4.50;;;2.70;;
11305;SDS011;5708;50.660;6.778;2023-04-10T15:12:25;3.90;;;2.23;;
11305;SDS011;5708;50.660;6.778;2023-04-10T15:14:50;5.13;;;2.57;;
11305;SDS011;5708;50.660;6.778;2023-04-10T15:17:15;4.97;;;2.58;;
11305;SDS011;5708;50.660;6.778;2023-04-10T15:19:41;4.82;;;2.97;;